Flight Track Log - Related Links

Times and Time Zones

All times are in EDT time to prevent confusion due to time zone crossing. See the N230DS flight status page for this flight to view local times or setup timezone preferences in your user account.

Time Position Orientation Groundspeed Altitude Reporting Facility
EDT Latitude Longitude Course Direction KTS MPH feet Rate Location/Type
Mon 11:27:15 PM 42.8717 -112.5841 10° North  Level FlightAware Approximate
Mon 11:28:15 PM 42.8411 -112.5746 North  Level FlightAware Approximate
Mon 11:29:02 PM 42.9258 -112.5706 44° Northeast 114 131 5,200  Level Salt Lake Center
Mon 11:30:03 PM 42.9389 -112.5531 158° South 74 85 5,800 488 Climbing Salt Lake Center
Mon 11:31:05 PM 42.9097 -112.5372 225° Southwest 87 100 6,200 585 Climbing Salt Lake Center
Mon 11:32:06 PM 42.8908 -112.5633 194° South 100 115 7,000 683 Climbing Salt Lake Center
Mon 11:33:08 PM 42.8622 -112.5733 187° South 97 112 7,600 537 Climbing Salt Lake Center
Mon 11:34:09 PM 42.8375 -112.5775 187° South 95 109 8,100 541 Climbing Salt Lake Center
Mon 11:35:10 PM 42.8125 -112.5819 186° South 95 109 8,700 585 Climbing Salt Lake Center
Mon 11:36:12 PM 42.7856 -112.5856 189° South 91 105 9,300 488 Climbing Salt Lake Center
Mon 11:37:13 PM 42.7625 -112.5906 192° South 89 102 9,700 344 Climbing Salt Lake Center
Mon 11:38:14 PM 42.7353 -112.5983 187° South 89 102 10,000 148 Climbing Salt Lake Center
Mon 11:39:15 PM 42.7053 -112.6036 161° South 103 119 10,000  Level Salt Lake Center
Mon 11:40:17 PM 42.6728 -112.5883 166° South 114 131 10,000  Level Salt Lake Center
Mon 11:41:18 PM 42.6408 -112.5778 170° South 116 133 10,000  Level Salt Lake Center
Mon 11:42:19 PM 42.6097 -112.5700 169° South 114 131 10,000  Level Salt Lake Center
Mon 11:43:20 PM 42.5789 -112.5619 167° South 112 129 10,000  Level Salt Lake Center
Mon 11:44:22 PM 42.5478 -112.5522 167° South 113 130 10,000  Level Salt Lake Center
Mon 11:45:23 PM 42.5167 -112.5422 167° South 114 131 10,000  Level Salt Lake Center
Mon 11:46:24 PM 42.4856 -112.5328 166° South 113 130 10,000  Level Salt Lake Center
Mon 11:47:26 PM 42.4544 -112.5222 169° South 114 131 10,000  Level Salt Lake Center
Mon 11:48:27 PM 42.4236 -112.5142 168° South 113 130 10,000  Level Salt Lake Center
Mon 11:49:28 PM 42.3917 -112.5050 168° South 115 132 10,000  Level Salt Lake Center
Mon 11:50:29 PM 42.3594 -112.4961 167° South 116 133 10,000  Level Salt Lake Center
Mon 11:51:31 PM 42.3219 -112.4847 168° South 117 135 10,000  Level Salt Lake Center
Mon 11:52:32 PM 42.2886 -112.4756 168° South 119 137 10,000  Level Salt Lake Center
Mon 11:53:33 PM 42.2556 -112.4658 166° South 120 138 10,000  Level Salt Lake Center
Mon 11:54:35 PM 42.2233 -112.4550 170° South 119 137 10,000  Level Salt Lake Center
Mon 11:55:36 PM 42.1911 -112.4472 164° South 118 136 10,000  Level Salt Lake Center
Mon 11:56:37 PM 42.1600 -112.4356 162° South 116 133 10,000  Level Salt Lake Center
Mon 11:57:39 PM 42.1275 -112.4214 166° South 118 136 10,000  Level Salt Lake Center
Mon 11:58:40 PM 42.0944 -112.4103 164° South 120 138 10,000  Level Salt Lake Center
Mon 11:59:42 PM 42.0614 -112.3975 164° South 121 139 10,000  Level Salt Lake Center
Tue 12:00:43 AM 42.0292 -112.3853 168° South 121 139 10,000  Level Salt Lake Center
Tue 12:01:44 AM 41.9947 -112.3756 163° South 122 140 10,000  Level Salt Lake Center
Tue 12:02:46 AM 41.9617 -112.3619 167° South 123 142 10,000  Level Salt Lake Center
Tue 12:03:47 AM 41.9286 -112.3517 163° South 122 140 10,000  Level Salt Lake Center
Tue 12:04:49 AM 41.8917 -112.3367 164° South 120 138 10,000  Level Salt Lake Center
Tue 12:05:50 AM 41.8589 -112.3244 149° Southeast 120 138 10,000  Level Salt Lake Center
Tue 12:06:52 AM 41.8292 -112.3006 181° South 141 162 10,000  Level Salt Lake Center
Tue 12:07:53 AM 41.7922 -112.3011 169° South 129 148 10,000  Level Salt Lake Center
Tue 12:08:54 AM 41.7592 -112.2925 162° South 122 140 10,000  Level Salt Lake Center
Tue 12:09:56 AM 41.7258 -112.2783 164° South 123 142 10,000  Level Salt Lake Center
Tue 12:10:57 AM 41.6925 -112.2656 164° South 123 142 10,000  Level Salt Lake Center
Tue 12:11:59 AM 41.6589 -112.2531 164° South 124 143 10,000  Level Salt Lake Center
Tue 12:13:00 AM 41.6261 -112.2408 166° South 123 142 10,000  Level Salt Lake Center
Tue 12:14:02 AM 41.5933 -112.2300 167° South 121 139 10,000  Level Salt Lake Center
Tue 12:15:03 AM 41.5633 -112.2206 165° South 114 131 10,000  Level Salt Lake Center
Tue 12:16:04 AM 41.5317 -112.2092 165° South 115 132 10,000 -195 Level Salt Lake Center
Tue 12:17:06 AM 41.4986 -112.1969 165° South 121 139 9,600 -390 Descending Salt Lake Center
Tue 12:18:07 AM 41.4569 -112.1817 159° South 130 150 9,200 -303 Descending Salt Lake Center
Tue 12:19:05 AM 41.4239 -112.1650 165° South 130 150 9,000 -102 Descending Salt Lake Center
Tue 12:20:05 AM 41.3914 -112.1531 166° South 119 137 9,000  Level Salt Lake Center
Tue 12:21:06 AM 41.3617 -112.1433 168° South 115 132 9,000  Level Salt Lake Center
Tue 12:22:06 AM 41.3297 -112.1342 169° South 113 130 9,000  Level Salt Lake Center
Tue 12:23:14 AM 41.2983 -112.1258 161° South 110 127 9,000  Level Salt Lake Center
Tue 12:24:08 AM 41.2719 -112.1139 152° Southeast 110 127 9,000  Level Salt Lake Center
Tue 12:25:08 AM 41.2444 -112.0947 131° Southeast 113 130 9,000  Level Salt Lake Center
Tue 12:26:03 AM 41.2231 -112.0619 133° Southeast 118 136 9,000  Level Salt Lake Center
Tue 12:27:03 AM 41.2022 -112.0322 144° Southeast 115 132 9,000  Level Salt Lake Center
Tue 12:28:04 AM 41.1758 -112.0069 144° Southeast 113 130 9,000  Level Salt Lake Center
Tue 12:29:11 AM 41.1494 -111.9817 155° Southeast 111 128 9,000  Level Salt Lake Center
Tue 12:30:23 AM 41.1167 -111.9614 179° South 115 132 9,000  Level Salt Lake Center
Tue 12:31:12 AM 41.0936 -111.9608 177° South 107 123 9,000  Level Salt Lake Center
Tue 12:32:13 AM 41.0653 -111.9592 180° South 106 122 9,000 -99 Level Salt Lake Center
Tue 12:33:13 AM 41.0331 -111.9589 185° South 110 127 8,800 -545 Descending Salt Lake Center
Tue 12:34:14 AM 40.9950 -111.9633 182° South 127 146 7,900 -744 Descending Salt Lake Center
Tue 12:35:14 AM 40.9653 -111.9650 178° South 108 124 7,300 -595 Descending Salt Lake Center
Tue 12:36:15 AM 40.9350 -111.9639 179° South 111 128 6,700 -590 Descending Salt Lake Center
Tue 12:37:16 AM 40.9044 -111.9631 181° South 107 123 6,100 -432 Descending Salt Lake Center
Tue 12:38:34 AM 40.8708 -111.9639 181° South 98 113 5,700 -397 Descending Salt Lake Center
Tue 12:39:17 AM 40.8511 -111.9642 180° South 91 105 5,300 -524 Descending Salt Lake Center
Tue 12:40:17 AM 40.8253 -111.9644 177° South 90 104 4,800 -468 Descending Salt Lake Center
Tue 12:41:38 AM 40.7983 -111.9625 177° South 70 81 4,200 -444 Descending Salt Lake Center

Login

Don't have an account? Register now (free) for customized features, flight alerts, and more!